Time;durP1;ratioP1;P1;durP2;ratioP2;P2;SDS_P1;SDS_P2;PMS_P1;PMS_P2;Temp;Humidity;BMP_temperature;BMP_pressure;BME280_temperature;BME280_humidity;BME280_pressure;Samples;Min_cycle;Max_cycle;Signal;HPM_P1;HPM_P2
2021/05/15 00:00:19;;;;;;;0.70;0.60;;;;;;;8.45;100.00;95234.41;1034686;28;20037;-68
2021/05/15 00:00:51;;;;;;;1.38;0.60;;;;;;;8.43;100.00;95241.75;1038967;28;20128;-68
2021/05/15 00:01:22;;;;;;;3.72;0.93;;;;;;;8.44;100.00;95238.06;1040228;28;20092;-68
2021/05/15 00:01:52;;;;;;;2.08;0.70;;;;;;;8.46;100.00;95244.63;1047196;28;20263;-69
2021/05/15 00:02:23;;;;;;;1.80;0.80;;;;;;;8.41;100.00;95233.34;1039717;28;20367;-69
2021/05/15 00:02:54;;;;;;;3.42;0.80;;;;;;;8.44;100.00;95243.28;1046764;28;20490;-68
2021/05/15 00:03:24;;;;;;;2.15;0.90;;;;;;;8.46;100.00;95238.59;1043151;28;20090;-70
2021/05/15 00:03:56;;;;;;;2.50;1.08;;;;;;;8.46;100.00;95247.22;1043316;28;20329;-68
2021/05/15 00:04:27;;;;;;;1.92;0.90;;;;;;;8.47;100.00;95242.78;1047433;28;20040;-69
2021/05/15 00:04:57;;;;;;;1.73;0.90;;;;;;;8.46;100.00;95241.22;1043853;28;20263;-70
2021/05/15 00:05:28;;;;;;;2.17;0.80;;;;;;;8.48;100.00;95245.16;1043483;28;20024;-69
2021/05/15 00:06:01;;;;;;;4.15;1.08;;;;;;;8.44;100.00;95233.63;1039226;28;20056;-69
2021/05/15 00:06:32;;;;;;;1.48;0.77;;;;;;;8.45;100.00;95245.66;1036535;28;20104;-68
2021/05/15 00:07:02;;;;;;;4.88;1.17;;;;;;;8.38;100.00;95234.66;1044273;28;20849;-69
2021/05/15 00:07:33;;;;;;;1.33;0.80;;;;;;;8.45;100.00;95239.63;1044541;28;20024;-68
2021/05/15 00:08:04;;;;;;;1.70;0.80;;;;;;;8.43;100.00;95237.28;1044223;28;20016;-68
2021/05/15 00:08:35;;;;;;;1.40;1.00;;;;;;;8.47;100.00;95240.16;1039474;28;20021;-68
2021/05/15 00:09:06;;;;;;;1.02;0.82;;;;;;;8.44;100.00;95238.84;1035359;28;20308;-69
2021/05/15 00:09:36;;;;;;;2.75;0.77;;;;;;;8.38;100.00;95233.88;1046566;28;20043;-68
2021/05/15 00:10:07;;;;;;;3.33;1.00;;;;;;;8.45;100.00;95244.84;1043686;28;20021;-69
2021/05/15 00:10:38;;;;;;;1.25;0.73;;;;;;;8.42;100.00;95230.50;1039301;28;20060;-68
2021/05/15 00:11:08;;;;;;;3.42;1.13;;;;;;;8.47;100.00;95242.78;1041124;28;20275;-68
2021/05/15 00:11:39;;;;;;;1.67;0.95;;;;;;;8.45;100.00;95234.41;1039549;28;20017;-68
2021/05/15 00:12:09;;;;;;;2.33;1.00;;;;;;;8.38;100.00;95226.81;1030677;28;20504;-68
2021/05/15 00:12:40;;;;;;;2.47;1.10;;;;;;;8.44;100.00;95231.00;1039698;28;20100;-68
2021/05/15 00:13:10;;;;;;;1.75;1.00;;;;;;;8.44;100.00;95233.63;1050812;28;20020;-68
2021/05/15 00:13:43;;;;;;;1.20;0.82;;;;;;;8.44;100.00;95238.84;1049485;28;20028;-67
2021/05/15 00:14:14;;;;;;;2.03;0.77;;;;;;;8.37;100.00;95229.69;1047772;28;20099;-68
2021/05/15 00:14:44;;;;;;;4.25;1.13;;;;;;;8.44;100.00;95245.91;1045546;28;20267;-70
2021/05/15 00:15:15;;;;;;;3.45;1.02;;;;;;;8.45;100.00;95237.00;1039449;28;20037;-67
2021/05/15 00:15:46;;;;;;;1.63;1.30;;;;;;;8.36;100.00;95226.28;1034609;28;20030;-68
2021/05/15 00:16:16;;;;;;;1.38;0.93;;;;;;;8.44;100.00;95238.06;1039502;28;20351;-67
2021/05/15 00:16:46;;;;;;;3.53;0.90;;;;;;;8.37;100.00;95227.84;1049886;28;20362;-68
2021/05/15 00:17:17;;;;;;;1.65;0.80;;;;;;;8.44;100.00;95238.06;1047447;28;20009;-68
2021/05/15 00:17:48;;;;;;;1.20;0.80;;;;;;;8.38;100.00;95228.66;1047091;28;20035;-68
2021/05/15 00:18:18;;;;;;;3.30;1.17;;;;;;;8.44;100.00;95243.28;1043668;28;20035;-69
2021/05/15 00:18:49;;;;;;;1.85;0.85;;;;;;;8.43;100.00;95244.34;1047556;28;20012;-68
2021/05/15 00:19:19;;;;;;;1.35;1.17;;;;;;;8.43;100.00;95236.50;1047432;28;20107;-68
2021/05/15 00:19:50;;;;;;;1.20;1.00;;;;;;;8.43;100.00;95237.28;1051732;28;20024;-69
2021/05/15 00:20:20;;;;;;;5.32;1.13;;;;;;;8.36;100.00;95226.28;1051741;28;20020;-68
2021/05/15 00:20:54;;;;;;;1.05;0.93;;;;;;;8.41;100.00;95233.34;1043529;28;20020;-65
2021/05/15 00:21:24;;;;;;;3.15;1.02;;;;;;;8.41;100.00;95241.97;1043280;28;20024;-70
2021/05/15 00:21:55;;;;;;;1.63;1.10;;;;;;;8.35;100.00;95226.53;1039168;28;20256;-65
2021/05/15 00:22:25;;;;;;;1.52;0.80;;;;;;;8.41;100.00;95235.97;1040319;28;20022;-68
2021/05/15 00:22:59;;;;;;;1.52;1.20;;;;;;;8.40;100.00;95237.81;1039187;28;20017;-69
2021/05/15 00:23:29;;;;;;;9.10;1.50;;;;;;;8.37;100.00;95237.50;1036273;28;20029;-68
2021/05/15 00:23:59;;;;;;;1.63;1.35;;;;;;;8.40;100.00;95237.03;1042717;28;20668;-68
2021/05/15 00:24:30;;;;;;;1.30;0.80;;;;;;;8.41;100.00;95239.38;1044408;28;20470;-68
2021/05/15 00:25:01;;;;;;;1.40;1.08;;;;;;;8.41;100.00;95239.38;1047720;28;20067;-68
2021/05/15 00:25:31;;;;;;;1.45;1.02;;;;;;;8.41;100.00;95235.97;1051469;28;20028;-69
2021/05/15 00:26:02;;;;;;;2.72;1.10;;;;;;;8.31;100.00;95228.88;1046825;28;20032;-67
2021/05/15 00:26:32;;;;;;;1.30;1.02;;;;;;;8.41;100.00;95230.75;1039162;28;20032;-68
2021/05/15 00:27:03;;;;;;;1.20;0.98;;;;;;;8.42;100.00;95234.94;1041845;28;20028;-68
2021/05/15 00:27:34;;;;;;;1.23;0.90;;;;;;;8.40;100.00;95237.81;1039176;28;20030;-69
2021/05/15 00:28:04;;;;;;;2.05;1.60;;;;;;;8.39;100.00;95235.47;1043697;28;20041;-69
2021/05/15 00:28:34;;;;;;;4.35;1.15;;;;;;;8.39;100.00;95235.47;1051779;28;20036;-68
2021/05/15 00:29:06;;;;;;;2.63;1.20;;;;;;;8.39;100.00;95231.03;1059273;27;20034;-67
2021/05/15 00:29:39;;;;;;;1.98;1.27;;;;;;;8.38;100.00;95233.88;1055507;28;20024;-67
2021/05/15 00:30:11;;;;;;;2.85;1.30;;;;;;;8.37;100.00;95232.28;1039135;28;20275;-69
2021/05/15 00:30:42;;;;;;;2.53;1.30;;;;;;;8.37;100.00;95229.69;1041220;28;20126;-70
2021/05/15 00:31:15;;;;;;;1.67;1.10;;;;;;;8.36;100.00;95235.97;1035171;28;20257;-68
2021/05/15 00:31:45;;;;;;;2.28;1.08;;;;;;;8.36;100.00;95231.50;1043932;28;20770;-69
2021/05/15 00:32:16;;;;;;;1.55;0.98;;;;;;;8.36;100.00;95228.13;1044371;28;20052;-68
2021/05/15 00:32:46;;;;;;;3.33;1.13;;;;;;;8.33;100.00;95226.81;1043276;28;20032;-67
2021/05/15 00:33:17;;;;;;;2.35;1.10;;;;;;;8.35;100.00;95223.91;1043340;28;20029;-67
2021/05/15 00:33:47;;;;;;;1.85;1.10;;;;;;;8.34;100.00;95222.34;1043346;28;20497;-67
2021/05/15 00:34:18;;;;;;;2.00;1.00;;;;;;;8.34;100.00;95230.97;1051667;28;20028;-69
2021/05/15 00:34:48;;;;;;;1.75;1.20;;;;;;;8.36;100.00;95230.72;1051536;28;20031;-69
2021/05/15 00:35:18;;;;;;;2.97;1.75;;;;;;;8.34;100.00;95222.34;1051732;28;20023;-68
2021/05/15 00:35:49;;;;;;;2.85;1.10;;;;;;;8.36;100.00;95230.72;1044033;28;20031;-69
2021/05/15 00:36:19;;;;;;;2.08;1.05;;;;;;;8.34;100.00;95224.97;1051284;28;20035;-68
2021/05/15 00:36:53;;;;;;;3.63;1.30;;;;;;;8.34;100.00;95227.56;1049315;28;20028;-67
2021/05/15 00:37:23;;;;;;;2.00;1.48;;;;;;;8.33;100.00;95224.19;1052336;28;20270;-69
2021/05/15 00:37:53;;;;;;;1.88;1.40;;;;;;;8.33;100.00;95231.25;1049334;28;20020;-68
2021/05/15 00:38:24;;;;;;;1.30;1.20;;;;;;;8.25;100.00;95219.50;1051814;28;20027;-69
2021/05/15 00:38:54;;;;;;;3.05;1.48;;;;;;;8.31;100.00;95234.09;1043556;28;20020;-67
2021/05/15 00:39:25;;;;;;;6.18;1.60;;;;;;;8.30;100.00;95231.75;1043200;28;20060;-69
2021/05/15 00:39:55;;;;;;;1.20;1.00;;;;;;;8.28;100.00;95232.00;1038934;28;20029;-67
2021/05/15 00:40:26;;;;;;;1.42;1.00;;;;;;;8.29;100.00;95233.59;1039503;28;20095;-69
2021/05/15 00:40:57;;;;;;;2.03;1.30;;;;;;;8.29;100.00;95232.81;1047386;28;20028;-67
2021/05/15 00:41:27;;;;;;;1.65;1.17;;;;;;;8.30;100.00;95231.75;1047600;28;20044;-68
2021/05/15 00:41:57;;;;;;;2.85;1.27;;;;;;;8.29;100.00;95235.44;1051474;28;20027;-67
2021/05/15 00:42:28;;;;;;;3.15;1.80;;;;;;;8.26;100.00;95227.06;1051585;28;20032;-69
2021/05/15 00:42:58;;;;;;;2.33;1.38;;;;;;;8.27;100.00;95227.84;1043251;28;20549;-69
2021/05/15 00:43:29;;;;;;;2.58;1.15;;;;;;;8.29;100.00;95227.59;1040135;28;20036;-68
2021/05/15 00:44:49;;;;;;;2.75;1.20;;;;;;;8.29;100.00;95224.97;1043430;28;20122;-68
2021/05/15 00:45:00;;;;;;;5.34;1.30;;;;;;;8.29;100.00;95224.97;1040260;28;20033;-69
2021/05/15 00:45:30;;;;;;;2.92;1.65;;;;;;;8.27;100.00;95223.38;1043337;28;20124;-68
2021/05/15 00:46:01;;;;;;;3.50;1.25;;;;;;;8.29;100.00;95230.19;1047601;28;20514;-67
2021/05/15 00:46:31;;;;;;;3.47;1.30;;;;;;;8.29;100.00;95230.19;1048295;28;20017;-68
2021/05/15 00:47:02;;;;;;;2.30;1.30;;;;;;;8.22;100.00;95212.94;1047354;28;20012;-68
2021/05/15 00:47:35;;;;;;;2.42;1.10;;;;;;;8.27;100.00;95223.38;1043228;28;20059;-68
2021/05/15 00:48:05;;;;;;;1.52;1.25;;;;;;;8.06;100.00;95187.84;1047536;28;20543;-68
2021/05/15 00:48:39;;;;;;;4.35;1.42;;;;;;;8.27;100.00;95223.38;1039246;28;20887;-68
2021/05/15 00:49:09;;;;;;;1.38;1.23;;;;;;;8.25;100.00;95222.88;1039765;28;20302;-68
2021/05/15 00:49:40;;;;;;;2.85;1.42;;;;;;;8.23;100.00;95219.72;1042590;28;20413;-68
2021/05/15 00:50:11;;;;;;;1.38;1.15;;;;;;;8.27;100.00;95223.38;1048049;28;20021;-69
2021/05/15 00:50:41;;;;;;;2.60;1.20;;;;;;;8.29;100.00;95222.38;1051819;28;20120;-69
2021/05/15 00:51:21;;;;;;;2.35;1.40;;;;;;;8.27;100.00;95223.38;1051366;28;20024;-70
2021/05/15 00:51:52;;;;;;;2.58;1.30;;;;;;;8.24;100.00;95221.28;1051588;28;20016;-69
2021/05/15 00:52:22;;;;;;;2.05;1.05;;;;;;;8.30;100.00;95227.31;1051725;28;20258;-69
2021/05/15 00:52:53;;;;;;;2.67;1.02;;;;;;;8.31;100.00;95228.09;1049116;28;20262;-68
2021/05/15 00:53:23;;;;;;;2.08;1.38;;;;;;;8.31;100.00;95228.09;1047688;28;20290;-68
2021/05/15 00:53:54;;;;;;;1.75;1.20;;;;;;;8.27;100.00;95214.75;1047552;28;20012;-68
2021/05/15 00:54:24;;;;;;;1.95;1.20;;;;;;;8.30;100.00;95223.91;1043278;28;20570;-69
2021/05/15 00:54:55;;;;;;;1.98;1.60;;;;;;;8.30;100.00;95229.16;1038769;28;20399;-68
2021/05/15 00:55:25;;;;;;;3.75;1.67;;;;;;;8.26;100.00;95223.66;1030906;28;20018;-68
2021/05/15 00:55:56;;;;;;;1.85;1.13;;;;;;;8.30;100.00;95231.75;1038566;28;20489;-67
2021/05/15 00:56:29;;;;;;;3.05;1.30;;;;;;;8.29;100.00;95227.59;1037065;28;20017;-69
2021/05/15 00:57:02;;;;;;;3.60;1.20;;;;;;;8.30;100.00;95231.75;1035122;28;20443;-67
2021/05/15 00:57:33;;;;;;;2.35;1.10;;;;;;;8.21;100.00;95213.97;1039055;28;21158;-69
2021/05/15 00:58:04;;;;;;;1.10;1.10;;;;;;;8.31;100.00;95233.31;1039175;28;20264;-68
2021/05/15 00:58:34;;;;;;;2.05;1.20;;;;;;;8.31;100.00;95228.09;1039406;28;20021;-68
2021/05/15 00:59:05;;;;;;;2.05;1.17;;;;;;;8.24;100.00;95223.13;1047383;28;20054;-68
2021/05/15 00:59:35;;;;;;;1.92;1.40;;;;;;;8.24;100.00;95220.50;1035141;28;20026;-69
2021/05/15 01:00:07;;;;;;;1.75;1.15;;;;;;;8.30;100.00;95227.31;1039334;28;20018;-68
2021/05/15 01:00:38;;;;;;;2.95;1.08;;;;;;;8.31;100.00;95233.31;1039231;28;20068;-68
2021/05/15 01:01:08;;;;;;;1.23;1.13;;;;;;;8.30;100.00;95229.16;1043397;28;20351;-68
2021/05/15 01:01:39;;;;;;;1.80;1.15;;;;;;;8.29;100.00;95230.97;1042973;28;20013;-68
2021/05/15 01:02:10;;;;;;;3.05;1.48;;;;;;;8.29;100.00;95233.59;1047481;28;20020;-68
2021/05/15 01:02:40;;;;;;;2.25;1.40;;;;;;;8.29;100.00;95230.19;1043527;28;20029;-68
2021/05/15 01:03:11;;;;;;;2.80;1.23;;;;;;;8.20;100.00;95222.88;1041125;28;20745;-68
2021/05/15 01:03:41;;;;;;;1.63;1.10;;;;;;;8.27;100.00;95226.00;1043252;28;20024;-68
2021/05/15 01:04:12;;;;;;;1.52;0.95;;;;;;;8.27;100.00;95231.22;1041679;28;20585;-69
2021/05/15 01:04:42;;;;;;;1.58;1.30;;;;;;;8.27;100.00;95226.00;1047077;28;20816;-68
2021/05/15 01:05:13;;;;;;;3.45;1.08;;;;;;;8.18;100.00;95213.69;1051547;28;20034;-68
2021/05/15 01:05:43;;;;;;;3.40;1.13;;;;;;;8.29;100.00;95235.44;1044604;28;20017;-66
2021/05/15 01:06:14;;;;;;;2.88;1.23;;;;;;;8.27;100.00;95233.84;1038998;28;20096;-68
2021/05/15 01:06:44;;;;;;;3.15;1.83;;;;;;;8.27;100.00;95233.84;1038122;28;20399;-70
2021/05/15 01:07:15;;;;;;;2.40;1.05;;;;;;;8.27;100.00;95233.84;1039401;28;20022;-68
2021/05/15 01:07:46;;;;;;;1.40;1.02;;;;;;;8.29;100.00;95235.44;1047037;28;20100;-69
2021/05/15 01:08:18;;;;;;;2.42;1.27;;;;;;;8.27;100.00;95233.84;1043171;28;20056;-69
2021/05/15 01:08:49;;;;;;;1.98;1.10;;;;;;;8.27;100.00;95231.22;1047897;28;20736;-68
2021/05/15 01:09:19;;;;;;;1.55;1.00;;;;;;;8.27;100.00;95228.63;1051532;28;20266;-69
2021/05/15 01:09:49;;;;;;;2.05;0.95;;;;;;;8.27;100.00;95239.06;1043727;28;20656;-68
2021/05/15 01:10:22;;;;;;;2.00;1.00;;;;;;;8.27;100.00;95228.63;1047471;28;20047;-67
2021/05/15 01:10:59;;;;;;;2.55;1.20;;;;;;;8.30;100.00;95229.16;1047408;28;20730;-69
2021/05/15 01:11:30;;;;;;;2.08;1.20;;;;;;;8.29;100.00;95230.19;1044274;28;20032;-68
2021/05/15 01:12:07;;;;;;;1.05;0.95;;;;;;;8.31;100.00;95228.09;1044115;28;20255;-68
2021/05/15 01:13:11;;;;;;;3.03;1.30;;;;;;;8.32;100.00;95230.47;1044472;28;20032;-68
2021/05/15 01:13:57;;;;;;;7.63;1.33;;;;;;;8.24;100.00;95218.69;1040725;28;20264;-69
2021/05/15 01:14:27;;;;;;;3.20;1.42;;;;;;;8.29;100.00;95227.59;1042372;28;20267;-68
2021/05/15 01:14:58;;;;;;;2.28;1.00;;;;;;;8.27;100.00;95228.63;1037263;28;20268;-68
2021/05/15 01:15:28;;;;;;;1.45;1.20;;;;;;;8.30;100.00;95235.16;1041227;28;20037;-69
2021/05/15 01:15:59;;;;;;;1.02;0.90;;;;;;;8.25;100.00;95227.31;1043104;28;20594;-68
2021/05/15 01:16:31;;;;;;;2.38;1.17;;;;;;;8.29;100.00;95235.44;1043180;28;20028;-69
2021/05/15 01:17:02;;;;;;;2.83;1.38;;;;;;;8.29;100.00;95235.44;1039456;28;20849;-68
2021/05/15 01:17:35;;;;;;;1.40;0.90;;;;;;;8.29;100.00;95227.59;1042297;28;20263;-67
2021/05/15 01:18:05;;;;;;;1.20;1.08;;;;;;;8.30;100.00;95226.53;1043876;28;20275;-68
2021/05/15 01:18:36;;;;;;;1.85;0.90;;;;;;;8.27;100.00;95228.63;1049791;28;20028;-68
2021/05/15 01:19:06;;;;;;;2.08;1.13;;;;;;;8.30;100.00;95229.94;1051447;28;20032;-69
2021/05/15 01:19:37;;;;;;;1.20;0.98;;;;;;;8.30;100.00;95229.16;1047333;28;20035;-67
2021/05/15 01:20:08;;;;;;;1.77;1.23;;;;;;;8.24;100.00;95223.91;1043594;28;20032;-67
2021/05/15 01:20:39;;;;;;;2.17;0.90;;;;;;;8.25;100.00;95220.25;1036236;28;20021;-68
2021/05/15 01:21:09;;;;;;;3.03;1.20;;;;;;;8.31;100.00;95228.88;1033646;28;20689;-68
2021/05/15 01:21:39;;;;;;;1.85;1.02;;;;;;;8.32;100.00;95227.06;1039019;28;20025;-69
2021/05/15 01:22:12;;;;;;;2.88;1.10;;;;;;;8.32;100.00;95234.91;1038015;28;20025;-69
2021/05/15 01:22:42;;;;;;;4.20;1.83;;;;;;;8.33;100.00;95232.03;1043609;28;20381;-67
2021/05/15 01:23:13;;;;;;;1.63;1.30;;;;;;;8.31;100.00;95228.88;1051068;28;20349;-69
2021/05/15 01:23:43;;;;;;;1.30;1.17;;;;;;;8.27;100.00;95222.59;1049940;28;20023;-68
2021/05/15 01:24:14;;;;;;;1.52;0.90;;;;;;;8.32;100.00;95229.69;1043070;28;20071;-67
2021/05/15 01:24:48;;;;;;;0.75;0.75;;;;;;;8.33;100.00;95231.25;1041156;28;20267;-71
2021/05/15 01:25:21;;;;;;;2.33;0.95;;;;;;;8.33;100.00;95223.41;1043860;28;20100;-68
2021/05/15 01:25:51;;;;;;;3.42;1.23;;;;;;;8.28;100.00;95221.56;1043200;28;20858;-68
2021/05/15 01:26:23;;;;;;;2.10;1.20;;;;;;;8.27;100.00;95220.78;1043884;28;20255;-67
2021/05/15 01:26:56;;;;;;;2.85;1.08;;;;;;;8.36;100.00;95228.91;1043334;28;20660;-69
2021/05/15 01:27:27;;;;;;;2.08;1.10;;;;;;;8.36;100.00;95231.50;1043764;28;20264;-68
2021/05/15 01:27:57;;;;;;;1.15;0.90;;;;;;;8.36;100.00;95226.28;1042754;28;20271;-68
2021/05/15 01:28:31;;;;;;;1.42;0.93;;;;;;;8.37;100.00;95230.44;1039980;28;20091;-69
2021/05/15 01:29:06;;;;;;;1.63;1.05;;;;;;;8.38;100.00;95229.44;1043215;28;20139;-68
2021/05/15 01:29:36;;;;;;;2.03;1.08;;;;;;;8.33;100.00;95226.03;1044017;28;20275;-69
2021/05/15 01:30:07;;;;;;;1.40;1.00;;;;;;;8.38;100.00;95229.44;1040124;28;20322;-69
2021/05/15 01:30:38;;;;;;;4.05;1.50;;;;;;;8.38;100.00;95228.66;1043826;28;20027;-68
2021/05/15 01:31:08;;;;;;;2.38;0.93;;;;;;;8.38;100.00;95231.25;1043201;28;20267;-69
2021/05/15 01:31:39;;;;;;;1.42;0.70;;;;;;;8.39;100.00;95231.03;1035046;28;20024;-69
2021/05/15 01:32:09;;;;;;;2.42;1.10;;;;;;;8.38;100.00;95228.66;1038830;28;20033;-68
2021/05/15 01:32:43;;;;;;;3.05;1.15;;;;;;;8.32;100.00;95217.41;1034982;28;20024;-67
2021/05/15 01:33:14;;;;;;;2.45;0.77;;;;;;;8.39;100.00;95236.25;1039393;28;20021;-68
2021/05/15 01:33:44;;;;;;;1.50;0.90;;;;;;;8.39;100.00;95225.78;1043114;28;20301;-69
2021/05/15 01:34:15;;;;;;;1.55;0.90;;;;;;;8.40;100.00;95231.81;1046036;28;20024;-69
2021/05/15 01:34:45;;;;;;;2.05;0.95;;;;;;;8.36;100.00;95222.88;1043179;28;20072;-67
2021/05/15 01:35:19;;;;;;;1.10;0.88;;;;;;;8.41;100.00;95228.13;1043220;28;20029;-70
2021/05/15 01:35:50;;;;;;;3.28;0.90;;;;;;;8.39;100.00;95233.63;1033933;28;20036;-68
2021/05/15 01:36:20;;;;;;;1.42;1.10;;;;;;;8.33;100.00;95223.41;1035343;28;20291;-67
2021/05/15 01:36:51;;;;;;;3.72;1.48;;;;;;;8.39;100.00;95230.25;1036097;28;20029;-68
2021/05/15 01:37:21;;;;;;;1.73;0.90;;;;;;;8.38;100.00;95231.25;1039747;28;20918;-69
2021/05/15 01:37:56;;;;;;;2.95;0.95;;;;;;;8.38;100.00;95234.66;1043135;28;20028;-69
2021/05/15 01:38:29;;;;;;;1.23;1.08;;;;;;;8.36;100.00;95230.72;1044072;28;20506;-68
2021/05/15 01:38:59;;;;;;;2.17;0.95;;;;;;;8.35;100.00;95229.13;1047487;28;20266;-67
2021/05/15 01:39:31;;;;;;;1.08;1.02;;;;;;;8.33;100.00;95232.03;1047183;28;20024;-68
2021/05/15 01:40:03;;;;;;;2.88;0.82;;;;;;;8.25;100.00;95220.25;1048010;28;20021;-68
2021/05/15 01:40:34;;;;;;;1.58;1.00;;;;;;;8.29;100.00;95240.66;1043044;28;20776;-68
2021/05/15 01:41:05;;;;;;;1.40;1.08;;;;;;;8.29;100.00;95230.19;1038425;28;20276;-68
2021/05/15 01:41:36;;;;;;;3.00;1.45;;;;;;;8.28;100.00;95229.41;1039002;28;20801;-68
2021/05/15 01:42:06;;;;;;;2.85;1.30;;;;;;;8.29;100.00;95235.44;1039369;28;20275;-69
2021/05/15 01:42:37;;;;;;;2.80;1.08;;;;;;;8.26;100.00;95232.28;1040411;28;20021;-67
2021/05/15 01:43:08;;;;;;;2.33;1.30;;;;;;;8.22;100.00;95240.91;1038986;28;20072;-68
2021/05/15 01:43:38;;;;;;;1.50;1.40;;;;;;;8.22;100.00;95240.91;1043018;28;20025;-68
2021/05/15 01:44:09;;;;;;;1.98;0.90;;;;;;;8.19;100.00;95236.97;1043210;28;20021;-67
2021/05/15 01:44:39;;;;;;;1.10;0.95;;;;;;;8.18;100.00;95234.59;1037844;28;20033;-68
2021/05/15 01:45:10;;;;;;;2.45;1.20;;;;;;;8.18;100.00;95237.22;1031769;28;20026;-69
2021/05/15 01:45:40;;;;;;;5.35;1.58;;;;;;;8.12;100.00;95222.59;1028417;28;20058;-66
2021/05/15 01:46:11;;;;;;;5.45;1.20;;;;;;;8.19;100.00;95239.59;1032705;28;20124;-67
2021/05/15 01:46:42;;;;;;;2.35;1.38;;;;;;;8.19;100.00;95236.97;1038584;28;20022;-67
2021/05/15 01:47:12;;;;;;;2.20;1.40;;;;;;;8.18;100.00;95243.25;1034227;28;20201;-68
2021/05/15 01:47:43;;;;;;;1.83;1.27;;;;;;;8.16;100.00;95240.09;1038264;28;20032;-68
2021/05/15 01:48:16;;;;;;;1.63;1.20;;;;;;;8.15;100.00;95241.16;1043015;28;20032;-68
2021/05/15 01:48:47;;;;;;;2.72;1.10;;;;;;;8.15;100.00;95241.16;1039106;28;20498;-68
2021/05/15 01:49:17;;;;;;;1.02;0.85;;;;;;;8.14;100.00;95242.19;1042529;28;20309;-68
2021/05/15 01:49:48;;;;;;;2.63;1.10;;;;;;;8.13;100.00;95242.47;1038442;28;20096;-67
2021/05/15 01:50:18;;;;;;;2.50;1.30;;;;;;;8.10;100.00;95233.31;1038947;28;20109;-67
2021/05/15 01:50:58;;;;;;;1.70;1.08;;;;;;;8.04;100.00;95234.31;1042856;28;20021;-66
2021/05/15 01:51:29;;;;;;;2.05;1.20;;;;;;;8.09;100.00;95241.41;1034523;28;20030;-67
2021/05/15 01:51:59;;;;;;;2.00;1.10;;;;;;;8.08;100.00;95245.84;1036171;28;20621;-68
2021/05/15 01:52:30;;;;;;;1.65;1.27;;;;;;;8.05;100.00;95233.31;1036077;28;20030;-67
2021/05/15 01:53:00;;;;;;;1.95;1.35;;;;;;;8.06;100.00;95241.91;1038503;28;20079;-67
2021/05/15 01:53:39;;;;;;;1.73;1.27;;;;;;;8.05;100.00;95241.16;1038627;28;20037;-69
2021/05/15 01:54:09;;;;;;;4.18;1.33;;;;;;;8.05;100.00;95241.16;1039878;28;20021;-69
2021/05/15 01:54:40;;;;;;;4.40;1.70;;;;;;;8.01;100.00;95234.84;1042732;28;20264;-69
2021/05/15 01:55:21;;;;;;;1.73;1.30;;;;;;;8.02;100.00;95241.66;1043976;28;20029;-66
2021/05/15 01:55:52;;;;;;;4.28;1.20;;;;;;;7.96;100.00;95233.00;1041264;28;20036;-67
2021/05/15 01:56:24;;;;;;;2.22;1.25;;;;;;;7.99;100.00;95237.72;1042107;28;20267;-68
2021/05/15 01:56:55;;;;;;;2.13;1.20;;;;;;;8.01;100.00;95237.47;1042870;28;20103;-67
2021/05/15 01:57:25;;;;;;;1.23;1.13;;;;;;;8.00;100.00;95243.72;1042778;28;20260;-67
2021/05/15 01:57:56;;;;;;;2.53;1.20;;;;;;;7.99;100.00;95242.16;1034355;28;20641;-67
2021/05/15 01:58:26;;;;;;;1.67;1.10;;;;;;;7.98;100.00;95243.19;1038949;28;20029;-68
2021/05/15 01:58:57;;;;;;;1.83;1.10;;;;;;;7.94;100.00;95234.31;1039157;28;20105;-66
2021/05/15 01:59:27;;;;;;;2.75;1.30;;;;;;;7.98;100.00;95240.59;1034586;28;20073;-67
2021/05/15 01:59:58;;;;;;;2.65;1.50;;;;;;;7.98;100.00;95243.19;1042924;28;20028;-69
2021/05/15 02:00:28;;;;;;;2.42;1.20;;;;;;;7.98;100.00;95243.19;1042999;28;20151;-67
2021/05/15 02:00:59;;;;;;;5.28;1.40;;;;;;;7.98;100.00;95235.34;1034838;28;20033;-65
2021/05/15 02:01:29;;;;;;;1.33;1.23;;;;;;;7.97;100.00;95233.78;1034367;28;20060;-66
2021/05/15 02:02:00;;;;;;;3.08;1.10;;;;;;;7.97;100.00;95233.78;1038611;28;20456;-67
2021/05/15 02:02:30;;;;;;;1.27;1.08;;;;;;;7.96;100.00;95229.63;1034834;28;20022;-68
2021/05/15 02:03:00;;;;;;;4.95;1.30;;;;;;;7.97;100.00;95233.78;1038763;28;20029;-66
2021/05/15 02:03:35;;;;;;;2.13;1.30;;;;;;;7.94;100.00;95236.91;1042824;28;20025;-68
2021/05/15 02:04:05;;;;;;;5.55;1.48;;;;;;;7.98;100.00;95237.97;1035064;28;20029;-68
2021/05/15 02:04:36;;;;;;;1.75;1.30;;;;;;;7.98;100.00;95235.34;1038186;28;20283;-67
2021/05/15 02:05:07;;;;;;;3.03;1.30;;;;;;;7.99;100.00;95237.72;1042901;28;20092;-68
2021/05/15 02:05:37;;;;;;;2.92;1.45;;;;;;;7.98;100.00;95240.59;1042583;28;20036;-67
2021/05/15 02:06:08;;;;;;;1.63;1.13;;;;;;;7.90;100.00;95228.81;1041923;28;20033;-67
2021/05/15 02:06:41;;;;;;;1.90;1.25;;;;;;;7.99;100.00;95242.94;1028895;28;20022;-67
2021/05/15 02:07:12;;;;;;;1.55;1.08;;;;;;;7.93;100.00;95232.75;1030534;28;20495;-67
2021/05/15 02:07:42;;;;;;;1.38;1.02;;;;;;;7.96;100.00;95238.25;1034581;28;20264;-67
2021/05/15 02:08:13;;;;;;;2.08;1.30;;;;;;;7.99;100.00;95242.94;1036487;28;20029;-67
2021/05/15 02:08:45;;;;;;;2.45;1.30;;;;;;;7.90;100.00;95230.66;1038793;28;20025;-68
2021/05/15 02:09:16;;;;;;;2.25;1.20;;;;;;;7.98;100.00;95237.97;1039259;28;20835;-67
2021/05/15 02:09:49;;;;;;;2.65;1.33;;;;;;;7.98;100.00;95240.59;1042872;28;20256;-67
2021/05/15 02:10:20;;;;;;;2.03;1.05;;;;;;;7.98;100.00;95237.97;1047469;28;20017;-67
2021/05/15 02:10:51;;;;;;;2.75;1.17;;;;;;;7.96;100.00;95242.69;1051320;28;20588;-67
2021/05/15 02:11:21;;;;;;;1.10;1.00;;;;;;;7.93;100.00;95232.75;1046929;28;20017;-68
2021/05/15 02:11:51;;;;;;;1.92;1.52;;;;;;;7.96;100.00;95240.06;1045087;28;20663;-68
2021/05/15 02:12:22;;;;;;;1.20;1.10;;;;;;;7.94;100.00;95237.69;1046814;28;20035;-68
2021/05/15 02:12:53;;;;;;;3.00;1.40;;;;;;;7.97;100.00;95242.41;1047250;28;20059;-68
2021/05/15 02:13:27;;;;;;;1.55;1.00;;;;;;;7.97;100.00;95239.03;1049928;28;20023;-67
2021/05/15 02:14:00;;;;;;;1.63;1.35;;;;;;;7.97;100.00;95236.41;1042894;28;20025;-67
2021/05/15 02:14:31;;;;;;;4.30;1.20;;;;;;;7.94;100.00;95237.69;1039529;28;20299;-67
2021/05/15 02:15:01;;;;;;;2.72;1.45;;;;;;;7.94;100.00;95237.69;1045095;28;20260;-69
2021/05/15 02:15:32;;;;;;;2.53;1.15;;;;;;;7.93;100.00;95240.59;1043058;28;20029;-67
2021/05/15 02:16:06;;;;;;;1.55;1.20;;;;;;;7.93;100.00;95232.75;1044320;28;20024;-68
2021/05/15 02:16:36;;;;;;;1.38;0.90;;;;;;;7.93;100.00;95237.97;1046583;28;20024;-68
2021/05/15 02:17:06;;;;;;;1.30;0.90;;;;;;;7.94;100.00;95239.53;1046973;28;20872;-68
2021/05/15 02:17:37;;;;;;;2.15;1.52;;;;;;;7.89;100.00;95231.69;1042939;28;20466;-66
2021/05/15 02:18:12;;;;;;;2.67;1.20;;;;;;;7.95;100.00;95238.50;1040907;28;20033;-67
2021/05/15 02:18:42;;;;;;;2.58;1.40;;;;;;;7.93;100.00;95243.19;1042727;28;20013;-67
2021/05/15 02:19:12;;;;;;;1.58;1.23;;;;;;;7.93;100.00;95245.81;1043348;28;20289;-69
2021/05/15 02:19:43;;;;;;;2.10;1.13;;;;;;;7.94;100.00;95244.75;1047497;28;20016;-67
2021/05/15 02:20:13;;;;;;;3.53;1.15;;;;;;;7.92;100.00;95237.19;1048703;28;20020;-67
2021/05/15 02:20:44;;;;;;;1.90;1.10;;;;;;;7.93;100.00;95243.19;1050857;28;20058;-67
2021/05/15 02:21:14;;;;;;;2.10;1.05;;;;;;;7.91;100.00;95233.00;1046475;28;20020;-67
2021/05/15 02:21:45;;;;;;;1.67;0.80;;;;;;;7.93;100.00;95237.97;1042534;28;20025;-67
2021/05/15 02:22:15;;;;;;;2.17;1.20;;;;;;;7.91;100.00;95234.81;1042934;28;20717;-67
2021/05/15 02:22:45;;;;;;;1.35;1.10;;;;;;;7.88;100.00;95236.13;1046495;28;20480;-67
2021/05/15 02:23:16;;;;;;;3.00;1.40;;;;;;;7.90;100.00;95233.25;1046961;28;20393;-67
2021/05/15 02:23:47;;;;;;;3.00;1.45;;;;;;;7.91;100.00;95234.81;1051104;28;20119;-68
2021/05/15 02:24:17;;;;;;;1.52;1.15;;;;;;;7.90;100.00;95234.03;1050423;28;20031;-68
2021/05/15 02:24:48;;;;;;;1.50;1.00;;;;;;;7.90;100.00;95233.25;1042709;28;20111;-67
2021/05/15 02:25:18;;;;;;;4.05;1.20;;;;;;;7.84;100.00;95218.63;1046805;28;20099;-69
2021/05/15 02:25:49;;;;;;;1.25;1.15;;;;;;;7.89;100.00;95237.69;1037928;28;20084;-68
2021/05/15 02:26:19;;;;;;;1.70;1.10;;;;;;;7.91;100.00;95242.66;1045571;28;20386;-67
2021/05/15 02:26:50;;;;;;;1.25;1.02;;;;;;;7.89;100.00;95236.94;1046709;28;20032;-68
2021/05/15 02:27:20;;;;;;;1.30;1.10;;;;;;;7.89;100.00;95231.69;1042862;28;20071;-67
2021/05/15 02:27:51;;;;;;;2.03;1.60;;;;;;;7.88;100.00;95230.09;1040607;28;20020;-67